Latest Weather Observations for Strahan

IDT60801

Issued at 12:01 am EST Sunday 6 September 2015 (issued every 30 minutes, with the page automatically refreshed every 10 minutes)

About weather observations | Map of weather stations | Latest weather observations for TAS | Other Formats
Station Details ID: 097072 Name: STRAHAN AERODROME Lat: -42.16 Lon: 145.29 Height: 21.0 m
Data from the previous 72 hours. | See also: Recent months at Strahan
Date/Time
EST
Temp
°C
App
Temp
°C
Dew
Point
Rel
Hum
%
Delta-T
°C
Wind Press
QNH
hPa
Press
MSL
hPa
Rain
since 9 am
mm
Dir
 
Spd
km/h
Gust
km/h
Spd
kts
Gust
kts
06/12:00am 4.4 0.8 3.2 92 0.5 NE 11 13 6 7 1022.8 1022.8 0.2
 
Date/Time
EST
Temp
°C
App
Temp
°C
Dew
Point
Rel
Hum
%
Delta-T
°C
Wind Press
QNH
hPa
Press
MSL
hPa
Rain
since 9 am
mm
Dir
 
Spd
km/h
Gust
km/h
Spd
kts
Gust
kts
05/11:30pm 4.6 0.3 3.4 92 0.5 NNE 15 17 8 9 1023.2 1023.2 0.2
05/11:00pm 4.4 1.2 3.2 92 0.5 NNE 9 15 5 8 1023.2 1023.2 0.2
05/10:30pm 4.4 1.6 3.2 92 0.5 NNE 7 13 4 7 1023.3 1023.3 0.2
05/10:00pm 4.7 1.6 3.5 92 0.5 NE 9 11 5 6 1023.5 1023.5 0.2
05/09:30pm 4.8 1.7 3.6 92 0.5 N 9 11 5 6 1023.6 1023.6 0.2
05/09:00pm 4.9 1.8 3.6 91 0.5 NNE 9 11 5 6 1023.4 1023.4 0.2
05/08:30pm 5.3 2.0 4.3 93 0.4 NNE 11 13 6 7 1023.3 1023.3 0.2
05/08:00pm 5.2 2.5 3.9 91 0.5 NNE 7 9 4 5 1023.1 1023.1 0.2
05/07:30pm 5.7 2.7 4.3 91 0.6 N 9 9 5 5 1022.9 1022.9 0.2
05/07:00pm 6.2 4.6 4.7 90 0.6 NNW 2 6 1 3 1022.8 1022.8 0.2
05/06:30pm 7.1 5.5 4.6 84 1.1 WSW 2 6 1 3 1022.5 1022.5 0.2
05/06:00pm 7.8 5.3 4.6 80 1.4 WNW 7 9 4 5 1022.2 1022.2 0.2
05/05:30pm 9.9 7.5 5.1 72 2.2 W 7 11 4 6 1022.0 1022.0 0.2
05/05:00pm 10.9 8.0 4.8 66 2.7 WSW 9 13 5 7 1021.9 1021.9 0.2
05/04:30pm 11.3 7.6 4.7 64 3.0 WSW 13 17 7 9 1021.8 1021.8 0.2
05/04:00pm 11.8 8.2 5.0 63 3.1 WSW 13 19 7 10 1021.9 1021.9 0.2
05/03:30pm 10.8 6.4 4.9 67 2.7 WSW 17 22 9 12 1021.8 1021.8 0.2
05/03:00pm 12.3 7.8 5.9 65 3.0 W 19 26 10 14 1021.7 1021.7 0.2
05/02:30pm 12.7 7.9 5.8 63 3.2 W 20 26 11 14 1021.7 1021.7 0.2
05/02:00pm 12.8 8.2 6.6 66 3.0 W 20 26 11 14 1021.6 1021.6 0.2
05/01:30pm 12.0 7.7 5.2 63 3.1 WSW 17 22 9 12 1021.8 1021.8 0.2
05/01:00pm 13.3 9.4 5.5 59 3.6 WSW 15 22 8 12 1022.0 1022.0 0.2
05/12:30pm 12.0 9.3 5.6 65 3.0 SW 9 13 5 7 1022.5 1022.5 0.2
05/12:00pm 13.1 10.0 5.5 60 3.5 SW 11 17 6 9 1022.7 1022.7 0.0
05/11:30am 12.5 9.1 5.7 63 3.2 SSW 13 17 7 9 1022.7 1022.7 0.0
05/11:00am 12.7 9.2 7.0 68 2.7 W 15 20 8 11 1022.7 1022.7 0.0
05/10:30am 11.9 8.5 6.0 67 2.8 WSW 13 20 7 11 1022.7 1022.7 0.0
05/10:00am 11.2 7.7 5.3 67 2.7 SW 13 20 7 11 1022.8 1022.8 0.0
05/09:30am 11.3 8.9 7.0 75 2.1 SSE 9 20 5 11 1022.9 1022.9 0.0
05/09:00am 9.3 7.4 6.9 85 1.1 E 6 9 3 5 1022.9 1022.9 7.2
05/08:30am 8.7 6.7 7.3 91 0.7 ESE 7 9 4 5 1022.8 1022.8 7.2
05/08:00am 8.3 7.7 7.2 93 0.5 CALM 0 0 0 0 1022.7 1022.7 7.2
05/07:30am 7.6 5.5 6.5 93 0.5 SE 7 9 4 5 1022.3 1022.3 7.2
05/07:00am 7.3 5.1 6.2 93 0.5 E 7 9 4 5 1021.8 1021.8 7.2
05/06:30am 7.5 4.6 6.4 93 0.5 SE 11 13 6 7 1021.5 1021.5 7.2
05/06:00am 7.5 4.6 6.4 93 0.5 SSE 11 13 6 7 1021.2 1021.2 7.2
05/05:30am 7.4 4.4 6.2 92 0.5 SSE 11 15 6 8 1020.9 1020.9 7.2
05/05:12am 7.9 4.7 6.8 93 0.5 S 13 17 7 9 1020.7 1020.7 7.2
05/05:00am 7.8 4.2 6.7 93 0.5 S 15 22 8 12 1020.5 1020.5 7.2
05/04:51am 7.7 3.1 6.6 93 0.5 S 20 28 11 15 1020.4 1020.4 7.2
05/04:30am 8.4 5.7 7.5 94 0.4 SSW 11 17 6 9 1020.0 1020.0 7.2
05/04:10am 8.8 5.5 7.9 94 0.4 WSW 15 24 8 13 1019.8 1019.8 6.6
05/04:00am 8.7 5.0 7.8 94 0.4 WSW 17 22 9 12 1019.7 1019.7 5.8
05/03:50am 8.4 5.4 7.5 94 0.4 WSW 13 22 7 12 1019.7 1019.7 5.6
05/03:38am 8.1 4.9 7.0 93 0.5 WSW 13 19 7 10 1019.7 1019.7 5.4
05/03:30am 8.3 4.1 7.4 94 0.4 SW 19 28 10 15 1019.7 1019.7 5.4
05/03:17am 8.0 5.6 7.1 94 0.4 SW 9 15 5 8 1019.8 1019.8 5.2
05/03:00am 8.1 5.7 7.0 93 0.5 SW 9 13 5 7 1019.8 1019.8 5.0
05/02:53am 8.3 6.0 7.4 94 0.4 SW 9 15 5 8 1019.8 1019.8 5.0
05/02:30am 8.8 5.4 7.7 93 0.5 WSW 15 22 8 12 1020.2 1020.2 4.8
05/02:20am 8.7 4.9 7.6 93 0.5 SW 17 28 9 15 1020.3 1020.3 4.8
05/02:00am 8.9 5.2 7.8 93 0.5 WSW 17 24 9 13 1020.4 1020.4 4.6
05/01:48am 9.0 6.1 8.1 94 0.4 WSW 13 20 7 11 1020.4 1020.4 4.6
05/01:43am 8.9 6.0 8.0 94 0.4 WSW 13 17 7 9 1020.4 1020.4 4.6
05/01:30am 8.8 4.7 7.7 93 0.5 WSW 19 24 10 13 1020.4 1020.4 4.6
05/01:05am 9.1 4.8 7.9 92 0.6 W 20 35 11 19 1020.5 1020.5 4.2
05/01:00am 9.2 5.9 8.0 92 0.6 W 15 22 8 12 1020.5 1020.5 4.2
05/12:30am 9.2 5.1 7.8 91 0.7 WSW 19 26 10 14 1020.5 1020.5 4.2
05/12:13am 8.9 5.2 7.8 93 0.5 WSW 17 22 9 12 1020.4 1020.4 4.2
05/12:00am 8.8 4.7 7.7 93 0.5 WSW 19 26 10 14 1020.5 1020.5 4.2
 
Date/Time
EST
Temp
°C
App
Temp
°C
Dew
Point
Rel
Hum
%
Delta-T
°C
Wind Press
QNH
hPa
Press
MSL
hPa
Rain
since 9 am
mm
Dir
 
Spd
km/h
Gust
km/h
Spd
kts
Gust
kts
04/11:37pm 8.9 4.6 7.8 93 0.5 WSW 20 28 11 15 1020.5 1020.5 4.0
04/11:30pm 8.9 4.6 7.8 93 0.5 WSW 20 24 11 13 1020.5 1020.5 4.0
04/11:21pm 8.9 5.5 7.8 93 0.5 SW 15 24 8 13 1020.6 1020.6 3.8
04/11:19pm 9.0 5.7 7.9 93 0.5 SW 15 20 8 11 1020.6 1020.6 3.8
04/11:00pm 9.1 5.0 7.7 91 0.7 W 19 28 10 15 1020.5 1020.5 3.8
04/10:37pm 8.8 5.0 7.7 93 0.5 WSW 17 20 9 11 1020.5 1020.5 3.8
04/10:30pm 8.7 4.9 7.6 93 0.5 WSW 17 24 9 13 1020.6 1020.6 3.8
04/10:16pm 8.7 6.1 7.6 93 0.5 WSW 11 26 6 14 1020.7 1020.7 3.8
04/10:00pm 8.7 5.6 7.3 91 0.7 SW 13 17 7 9 1020.7 1020.7 3.6
04/09:30pm 9.0 5.4 6.8 86 1.0 W 15 20 8 11 1020.7 1020.7 3.6
04/09:00pm 8.8 3.4 6.4 85 1.1 W 24 33 13 18 1020.7 1020.7 3.6
04/08:30pm 8.8 4.3 6.1 83 1.2 W 19 28 10 15 1020.6 1020.6 3.6
04/08:00pm 8.5 5.7 7.0 90 0.7 WSW 11 17 6 9 1020.5 1020.5 3.6
04/07:55pm 8.7 5.6 7.2 90 0.7 WSW 13 19 7 10 1020.5 1020.5 3.6
04/07:37pm 8.9 4.1 7.2 89 0.8 WSW 22 37 12 20 1020.6 1020.6 3.2
04/07:30pm 9.1 5.6 7.1 87 0.9 W 15 32 8 17 1020.5 1020.5 3.0
04/07:00pm 8.5 4.8 6.5 87 0.9 WSW 15 22 8 12 1020.5 1020.5 3.0
04/06:50pm 8.4 2.3 6.4 87 0.9 WSW 28 43 15 23 1020.5 1020.5 3.0
04/06:43pm 8.9 4.3 6.7 86 1.0 W 20 43 11 23 1020.6 1020.6 3.0
04/06:30pm 9.0 5.4 6.6 85 1.1 WNW 15 22 8 12 1020.3 1020.3 2.8
04/06:00pm 8.9 6.6 7.4 90 0.7 W 9 13 5 7 1020.3 1020.3 2.8
04/05:31pm 8.8 4.3 7.1 89 0.8 WSW 20 32 11 17 1020.1 1020.1 2.8
04/05:30pm 8.7 3.8 7.0 89 0.8 WSW 22 32 12 17 1020.1 1020.1 2.8
04/05:17pm 9.1 4.7 7.5 90 0.8 WSW 20 32 11 17 1020.2 1020.2 2.8
04/05:09pm 9.7 6.8 8.1 90 0.8 W 13 19 7 10 1020.2 1020.2 2.4
04/05:00pm 9.7 6.8 8.1 90 0.8 WNW 13 19 7 10 1019.9 1019.9 1.8
04/04:46pm 9.6 6.3 8.0 90 0.8 W 15 17 8 9 1020.0 1020.0 1.8
04/04:30pm 9.5 4.9 8.1 91 0.7 W 22 32 12 17 1020.1 1020.1 1.8
04/04:12pm 10.0 5.9 7.9 87 1.0 W 19 28 10 15 1020.1 1020.1 1.4
04/04:00pm 10.6 6.5 7.8 83 1.3 WNW 19 24 10 13 1020.0 1020.0 1.0
04/03:30pm 10.2 4.7 7.6 84 1.2 WNW 26 37 14 20 1020.1 1020.1 1.0
04/03:00pm 10.8 5.4 8.2 84 1.3 WNW 26 39 14 21 1020.0 1020.0 1.0
04/02:53pm 10.8 5.5 8.4 85 1.2 WNW 26 35 14 19 1020.0 1020.0 1.0
04/02:41pm 10.6 6.2 8.9 89 0.8 W 22 30 12 16 1019.8 1019.8 1.0
04/02:30pm 11.0 6.7 9.4 90 0.8 WNW 22 32 12 17 1019.8 1019.8 1.0
04/02:27pm 11.1 6.9 9.7 91 0.7 WNW 22 32 12 17 1019.8 1019.8 1.0
04/02:20pm 10.4 5.6 9.0 91 0.7 WNW 24 33 13 18 1019.8 1019.8 1.0
04/02:11pm 10.3 6.0 9.2 93 0.5 WNW 22 33 12 18 1019.8 1019.8 1.0
04/02:00pm 9.8 3.7 8.4 91 0.7 WNW 30 50 16 27 1019.9 1019.9 1.0
04/01:49pm 10.8 6.3 8.6 86 1.1 NNW 22 32 12 17 1019.8 1019.8 0.4
04/01:30pm 11.3 5.9 8.0 80 1.6 NW 26 35 14 19 1020.0 1020.0 0.4
04/01:00pm 11.3 5.6 8.2 81 1.5 NW 28 33 15 18 1020.4 1020.4 0.4
04/12:32pm 10.3 5.4 8.6 89 0.8 WNW 24 35 13 19 1021.0 1021.0 0.4
04/12:30pm 10.1 4.8 8.4 89 0.8 WNW 26 35 14 19 1021.0 1021.0 0.4
04/12:08pm 9.8 4.6 7.4 85 1.1 NW 24 32 13 17 1021.4 1021.4 0.4
04/12:00pm 10.8 5.7 7.5 80 1.6 NW 24 30 13 16 1021.4 1021.4 0.2
04/11:30am 10.6 5.3 6.6 76 1.9 WNW 24 32 13 17 1021.6 1021.6 0.2
04/11:00am 10.9 4.8 4.8 66 2.7 WNW 26 33 14 18 1021.7 1021.7 0.2
04/10:30am 10.2 5.8 6.4 77 1.8 NW 19 28 10 15 1021.8 1021.8 0.2
04/10:00am 8.5 5.2 6.5 87 0.9 N 13 19 7 10 1021.9 1021.9 0.2
04/09:43am 8.3 5.0 6.6 89 0.8 N 13 19 7 10 1021.9 1021.9 0.2
04/09:30am 8.0 4.6 6.0 87 0.9 N 13 19 7 10 1022.0 1022.0 0.0
04/09:22am 8.2 5.1 5.7 84 1.1 N 11 19 6 10 1022.0 1022.0 0.0
04/09:00am 8.2 4.8 5.7 84 1.1 N 13 19 7 10 1022.0 1022.0 0.0
04/08:30am 7.5 3.8 4.3 80 1.4 N 13 20 7 11 1022.1 1022.1 0.0
04/08:00am 6.0 1.6 2.8 80 1.3 NNE 15 20 8 11 1022.1 1022.1 0.0
04/07:30am 5.3 -0.1 2.5 82 1.1 NNE 20 26 11 14 1022.0 1022.0 0.0
04/07:00am 4.7 -0.1 2.4 85 0.9 NNE 17 20 9 11 1021.8 1021.8 0.0
04/06:30am 4.4 0.3 2.3 86 0.8 NNE 13 19 7 10 1022.0 1022.0 0.0
04/06:00am 3.9 -1.1 1.6 85 0.9 NNE 17 20 9 11 1021.9 1021.9 0.0
04/05:30am 3.8 -1.2 1.2 83 1.0 NNE 17 20 9 11 1021.7 1021.7 0.0
04/05:00am 4.2 -0.5 1.1 80 1.2 NNE 15 19 8 10 1021.7 1021.7 0.0
04/04:30am 4.5 0.2 1.0 78 1.4 NNE 13 20 7 11 1021.8 1021.8 0.0
04/04:00am 3.9 -0.8 0.8 80 1.2 NNE 15 19 8 10 1021.8 1021.8 0.0
04/03:30am 3.4 -1.3 0.6 82 1.1 NNE 15 19 8 10 1021.8 1021.8 0.0
04/03:00am 3.2 -1.5 0.6 83 1.0 NNE 15 20 8 11 1022.0 1022.0 0.0
04/02:30am 2.6 -1.8 0.3 85 0.9 NNE 13 17 7 9 1022.2 1022.2 0.0
04/02:00am 2.0 -2.1 -0.1 86 0.8 NE 11 13 6 7 1022.4 1022.4 0.0
04/01:30am 2.0 -1.7 -0.1 86 0.8 NE 9 13 5 7 1022.7 1022.7 0.0
04/01:00am 2.1 -2.3 0.3 88 0.7 NNE 13 15 7 8 1022.8 1022.8 0.0
04/12:30am 1.5 -2.2 -0.3 88 0.7 NNE 9 11 5 6 1022.8 1022.8 0.0
04/12:00am 1.3 -2.5 -0.5 88 0.6 NE 9 11 5 6 1022.8 1022.8 0.0
 
Date/Time
EST
Temp
°C
App
Temp
°C
Dew
Point
Rel
Hum
%
Delta-T
°C
Wind Press
QNH
hPa
Press
MSL
hPa
Rain
since 9 am
mm
Dir
 
Spd
km/h
Gust
km/h
Spd
kts
Gust
kts
03/11:30pm 1.8 -1.9 -0.1 87 0.7 NNE 9 11 5 6 1022.8 1022.8 0.0
03/11:00pm 2.3 -1.4 0.2 86 0.8 NNE 9 11 5 6 1022.9 1022.9 0.0
03/10:30pm 2.5 -1.2 0.2 85 0.9 NNE 9 11 5 6 1022.9 1022.9 0.0
03/10:00pm 2.6 -1.0 0.5 86 0.8 NNE 9 13 5 7 1022.8 1022.8 0.0
03/09:30pm 2.3 -1.0 0.2 86 0.8 NNE 7 9 4 5 1022.6 1022.6 0.0
03/09:00pm 3.2 -1.1 1.1 86 0.8 NNE 13 13 7 7 1022.5 1022.5 0.0
03/08:30pm 2.4 -1.6 0.3 86 0.8 N 11 13 6 7 1022.2 1022.2 0.0
03/08:00pm 3.0 -0.3 0.1 81 1.1 NNE 7 9 4 5 1021.8 1021.8 0.0
03/07:30pm 3.8 0.5 0.3 78 1.3 S 7 11 4 6 1021.7 1021.7 0.0
03/07:00pm 3.4 -0.7 -0.1 78 1.3 SSW 11 15 6 8 1021.5 1021.5 0.0
03/06:30pm 4.5 0.1 0.1 73 1.7 SSW 13 15 7 8 1021.3 1021.3 0.0
03/06:00pm 5.2 0.8 0.2 70 1.9 SSW 13 15 7 8 1020.9 1020.9 0.0
03/05:30pm 6.9 1.4 0.6 64 2.5 SSW 19 22 10 12 1020.2 1020.2 0.0
03/05:00pm 8.7 2.7 1.1 59 3.1 SSW 22 30 12 16 1019.7 1019.7 0.0
03/04:30pm 9.6 2.5 1.3 56 3.4 SSW 28 35 15 19 1019.1 1019.1 0.0
03/04:00pm 10.7 4.1 2.3 56 3.6 SSW 26 32 14 17 1018.5 1018.5 0.0
03/03:30pm 11.3 5.8 1.8 52 4.0 S 20 30 11 16 1018.1 1018.1 0.0
03/03:00pm 11.7 5.8 1.9 51 4.2 S 22 32 12 17 1017.8 1017.8 0.0
03/02:30pm 11.5 6.2 2.8 55 3.8 S 20 30 11 16 1017.5 1017.5 0.0
03/02:00pm 10.8 4.8 3.4 60 3.2 SSE 24 35 13 19 1017.3 1017.3 0.0
03/01:30pm 11.5 5.8 3.0 56 3.7 S 22 28 12 15 1017.3 1017.3 0.0
03/01:00pm 12.5 7.4 4.0 56 3.8 SSE 20 33 11 18 1017.2 1017.2 0.0
03/12:30pm 11.7 6.5 3.7 58 3.6 SSE 20 35 11 19 1017.3 1017.3 0.0
03/12:00pm 11.3 6.1 3.3 58 3.5 SSE 20 28 11 15 1017.3 1017.3 0.0
03/11:30am 9.7 4.0 4.7 71 2.2 SE 24 32 13 17 1017.3 1017.3 0.0
03/11:00am 10.1 5.4 5.9 75 1.9 S 20 28 11 15 1017.0 1017.0 0.0
03/10:30am 9.9 5.0 5.3 73 2.1 SSE 20 32 11 17 1016.7 1016.7 0.0
03/10:00am 10.8 5.1 6.6 75 2.0 SE 26 35 14 19 1016.3 1016.3 0.0
03/09:30am 9.7 3.9 6.4 80 1.5 SE 26 33 14 18 1016.1 1016.1 0.0
03/09:00am 9.3 4.0 6.6 83 1.3 SE 24 30 13 16 1015.4 1015.5 0.8
03/08:30am 7.8 3.2 6.4 91 0.6 SE 20 26 11 14 1014.8 1014.9 0.8
03/08:00am 8.3 4.4 7.2 93 0.5 SSE 17 22 9 12 1014.2 1014.3 0.8
03/07:30am 6.8 3.8 5.9 94 0.4 SSE 11 17 6 9 1013.8 1013.9 0.8
03/07:00am 7.2 4.3 6.5 95 0.3 SSE 11 13 6 7 1013.1 1013.2 0.8
03/06:30am 6.8 3.8 5.9 94 0.4 SSE 11 15 6 8 1012.8 1012.9 0.8
03/06:00am 7.2 3.9 6.3 94 0.4 SE 13 17 7 9 1012.3 1012.4 0.8
03/05:48am 7.2 3.5 6.3 94 0.4 SE 15 20 8 11 1012.0 1012.1 0.8
03/05:36am 7.3 3.6 6.4 94 0.4 SE 15 22 8 12 1011.9 1012.0 0.8
03/05:30am 7.3 4.0 6.4 94 0.4 SE 13 19 7 10 1011.9 1012.0 0.8
03/05:00am 7.3 3.2 6.2 93 0.5 SE 17 20 9 11 1011.7 1011.8 0.8
03/04:53am 7.3 2.8 6.2 93 0.5 SE 19 26 10 14 1011.6 1011.7 0.8
03/04:43am 7.4 3.3 6.3 93 0.5 SE 17 24 9 13 1011.5 1011.6 0.8
03/04:30am 7.5 3.1 6.4 93 0.5 SE 19 26 10 14 1011.5 1011.6 0.6
03/04:12am 7.7 3.3 6.6 93 0.5 SE 19 26 10 14 1011.3 1011.4 0.6
03/04:06am 7.7 3.1 6.6 93 0.5 SSE 20 26 11 14 1011.3 1011.4 0.6
03/04:00am 7.7 3.1 6.6 93 0.5 SSE 20 28 11 15 1011.2 1011.3 0.6
03/03:55am 7.8 3.3 6.9 94 0.4 SSE 20 28 11 15 1011.1 1011.2 0.6
03/03:54am 7.8 3.3 6.9 94 0.4 SSE 20 30 11 16 1011.1 1011.2 0.6
03/03:46am 7.9 3.4 7.0 94 0.4 S 20 30 11 16 1011.0 1011.1 0.4
03/03:30am 7.7 3.2 6.8 94 0.4 S 20 32 11 17 1010.7 1010.8 0.4
03/03:00am 8.4 5.4 7.5 94 0.4 S 13 20 7 11 1010.6 1010.7 0.4
03/02:45am 8.5 4.7 7.6 94 0.4 S 17 22 9 12 1010.6 1010.7 0.2
03/02:30am 8.7 5.0 7.8 94 0.4 S 17 20 9 11 1010.5 1010.6 0.2
03/02:29am 8.6 4.8 7.7 94 0.4 S 17 20 9 11 1010.5 1010.6 0.2
03/02:22am 8.7 4.6 7.8 94 0.4 S 19 28 10 15 1010.5 1010.6 0.0
03/02:00am 8.2 5.8 7.0 92 0.6 NNW 9 28 5 15 1010.5 1010.6 0.0
03/01:30am 8.4 7.4 7.2 92 0.6 N 2 9 1 5 1010.4 1010.5 0.0
03/01:00am 8.3 7.6 7.1 92 0.6 CALM 0 0 0 0 1010.4 1010.5 0.0
03/12:30am 8.0 6.5 6.6 91 0.6 NE 4 6 2 3 1010.4 1010.5 0.0

Other Formats:

Comma delimited format used in spreadsheet applications
http://www.bom.gov.au/fwo/IDT60801/IDT60801.94956.axf

JavaScript Object Notation format (JSON) in row-major order
http://www.bom.gov.au/fwo/IDT60801/IDT60801.94956.json